Death Valley, California
Current Conditions -  °F | °C
As of 4:52 AM on Thursday 30 Oct 2014 (Local Time) from KDRA Reporting Station
Clear Clear  
Wind Chill: 49°   Ceiling: Unl
Heat Index: 49°   Visibility: 10mi
Dew Point: 14°   Wind: 3mph
Humidity: 25%   Direction: 20°NNE
Pressure: 30.11"   Gusts: NA
Location:  36.46°N, 116.87°W
Report Text: KDRA 301152Z AUTO 02003KT 10SM CLR 09/M10 A3011 RMK AO2 SLP163 T00941100 10144 20083 57006
Loading
Personal Weather Stations






























Interactive Weather Map
Tropical Storm Tracking
New forecast layout! Learn more

10-Day Weather Forecast

Advertisements
Track Severe Weather on mobile